< < Back
Terminal Aerodrome Forecast


Current Version              Previous Versions:   1  2  3  4  5  6  7  8  9  

Terminal Aerodrome Forecast

288
FTUS44 KBMX 251100
TAFMGM
TAF
KMGM 251123Z 2512/2612 00000KT P6SM SKC
     FM251400 34006KT P6SM SKC=

Latest METAR

550
SAUS80 KWBC 260800
MTRMGM
METAR KMGM 260753Z AUTO 23003KT 8SM CLR 13/12 A3003 RMK AO2 SLP166
T01330117


USA.gov is the U.S. government's official web portal to all federal, state and local government web resources and services.